Terminal Aerodrome Forecast
Issued by NWS

Home | Current Version | Previous Version | Text Only | Print | Product List | Glossary Off
Versions: 1 2 3 4 5 6 7 8 9 10 11 12 13 14 15 16 17

000
FTUS43 KMPX 052334
TAFAXN
TAF
KAXN 052334Z 0600/0624 19010KT P6SM FEW100
     FM060900 25007KT P6SM SCT100
     FM061500 29010KT P6SM SCT060 BKN120=

USA.gov is the U.S. government's official web portal to all federal, state and local government web resources and services.